메인 페이지
METAR-TAF:

METAR-TAF

공항 :

Florø, 노르웨이

위도: 61-35N, 경도: 005-02E, 고도: 0m

현재 날씨관측

예보는 42분 전, 07:50시(UTC)에 발표되었습니다.
남남서16kt풍과 서남서풍을 오가는
온도 11°C
습도 82%
기압 1013 hPa
시정 10km 이상
고도 1200ft 상공 구름 조금
고도 1800ft 상공 구름 보통, 타워링 적운.
고도 2500ft 상공 구름 많음
약한소나기,

METAR: ENFL 200750Z 21016KT 180V240 9999 -SHRA FEW012 SCT018TCU BKN025 11/08 Q1013

시각: 10:32 (08:32 UTC)

예보

예보는 3 시간 32분 전, 05:00시(UTC)에 발표되었습니다.
예보 대상 시간: 20일 06시부터 20일 15시까지 (UTC)
남서20kt
시정 10km 이상
고도 700ft 상공 구름 보통
고도 1500ft 상공 구름 많음
약한비
일시적
20일 06시부터 20일 12시까지 (UTC)
서남서20kt, 순간 최대 풍속 30kt
일시적
20일 06시부터 20일 15시까지 (UTC)
고도 1400ft 상공 구름 많음
고도 2500ft 상공 구름 보통, 타워링 적운.
소나기
확률 40% :
일시적
20일 12시부터 20일 15시까지 (UTC)
서남서15kt, 순간 최대 풍속 25kt

TAF: ENFL 200500Z 2006/2015 22020KT 9999 -RA SCT007 BKN015 TEMPO 2006/2012 24020G30KT TEMPO 2006/2015 SHRA BKN014 SCT025TCU PROB40 TEMPO 2012/2015 24015G25KT

4,000개 이상의 공항 관측 자료 및 예보 (METAR 및 TAF 보고).

지도상에서 검색 가능한 기상관측소가 노란 점과 빨간 점으로 표시되어 있습니다.

기상관측소 명을 보려면 표시 위로 마우스를 이동하세요.

날씨 관측과 예보를 보려면 클릭하세요.

지도 변경 : 확대하려면 엑스 표시가 있는 녹색 버튼, 축소하려면 빼기 표시가 있는 녹색 버튼, 다음 페이지의 지도를 보려면 녹색 화살표를 클릭하세요.


METAR-TAF: